createdAt,value
2019-02-21T00:00:38.296Z,5.05
2019-02-21T00:01:38.382Z,5.10
2019-02-21T00:02:38.475Z,5.09
2019-02-21T00:03:38.549Z,5.07
2019-02-21T00:04:38.632Z,5.12
2019-02-21T00:05:38.728Z,5.07
2019-02-21T00:06:38.811Z,5.10
2019-02-21T00:07:38.897Z,5.07
2019-02-21T00:08:38.986Z,5.09
2019-02-21T00:09:39.075Z,5.05
2019-02-21T00:10:39.161Z,5.09
2019-02-21T00:11:39.244Z,5.12
2019-02-21T00:12:39.336Z,4.92
2019-02-21T00:13:39.424Z,4.99
2019-02-21T00:14:39.511Z,4.91
2019-02-21T00:15:39.601Z,4.98
2019-02-21T00:16:39.686Z,5.04
2019-02-21T00:17:39.774Z,5.07
2019-02-21T00:18:39.864Z,4.99
2019-02-21T00:19:39.953Z,5.13
2019-02-21T00:20:40.075Z,4.92
2019-02-21T00:21:40.164Z,4.95
2019-02-21T00:22:40.253Z,4.96
2019-02-21T00:23:40.386Z,4.92
2019-02-21T00:24:40.435Z,4.94
2019-02-21T00:25:40.522Z,4.99
2019-02-21T00:26:40.608Z,4.94
2019-02-21T00:27:40.696Z,5.02
2019-02-21T00:28:40.785Z,4.89
2019-02-21T00:29:40.869Z,4.95
2019-02-21T00:30:40.957Z,4.95
2019-02-21T00:31:41.044Z,4.94
2019-02-21T00:32:41.133Z,4.95
2019-02-21T00:33:41.218Z,4.96
2019-02-21T00:34:41.302Z,4.98
2019-02-21T00:35:41.388Z,4.96
2019-02-21T00:36:41.477Z,4.84
2019-02-21T00:37:41.566Z,4.83
2019-02-21T00:38:41.655Z,4.91
2019-02-21T00:39:41.742Z,4.80
2019-02-21T00:40:41.820Z,4.77
2019-02-21T00:41:41.906Z,4.70
2019-02-21T00:42:41.993Z,4.80
2019-02-21T00:43:42.081Z,4.72
2019-02-21T00:44:42.169Z,4.73
2019-02-21T00:45:42.258Z,4.76
2019-02-21T00:46:42.345Z,4.75
2019-02-21T00:47:42.434Z,4.69
2019-02-21T00:48:42.519Z,4.72
2019-02-21T00:49:42.608Z,4.76
2019-02-21T00:50:42.694Z,4.65
2019-02-21T00:51:42.782Z,4.69
2019-02-21T00:52:42.867Z,4.61
2019-02-21T00:53:42.959Z,4.57
2019-02-21T00:54:43.040Z,4.54
2019-02-21T00:55:43.134Z,4.62
2019-02-21T00:56:43.221Z,4.59
2019-02-21T00:57:43.308Z,4.59
2019-02-21T00:58:43.416Z,4.59
2019-02-21T00:59:43.501Z,4.59
2019-02-21T01:00:46.492Z,4.59
2019-02-21T01:01:43.679Z,4.43
2019-02-21T01:02:43.771Z,4.36
2019-02-21T01:03:43.861Z,4.37
2019-02-21T01:04:43.950Z,4.29
2019-02-21T01:05:44.033Z,4.29
2019-02-21T01:06:44.123Z,4.19
2019-02-21T01:07:44.214Z,4.18
2019-02-21T01:08:44.301Z,4.26
2019-02-21T01:09:44.388Z,4.24
2019-02-21T01:10:44.480Z,4.18
2019-02-21T01:11:44.557Z,4.15
2019-02-21T01:12:44.643Z,4.16
2019-02-21T01:13:44.727Z,4.15
2019-02-21T01:14:44.817Z,4.15
2019-02-21T01:15:44.903Z,4.15
2019-02-21T01:16:44.992Z,4.08
2019-02-21T01:17:45.073Z,4.08
2019-02-21T01:18:45.162Z,4.01
2019-02-21T01:19:45.247Z,3.89
2019-02-21T01:20:45.334Z,3.89
2019-02-21T01:21:45.422Z,4.01
2019-02-21T01:22:45.508Z,3.96
2019-02-21T01:23:45.599Z,3.98
2019-02-21T01:24:45.691Z,3.89
2019-02-21T01:25:45.788Z,4.00
2019-02-21T01:26:45.862Z,3.89
2019-02-21T01:27:46.023Z,3.97
2019-02-21T01:28:46.038Z,3.92
2019-02-21T01:29:46.122Z,4.01
2019-02-21T01:30:56.403Z,3.97
2019-02-21T01:31:46.304Z,3.97
2019-02-21T01:32:46.386Z,3.90
2019-02-21T01:33:46.478Z,3.90
2019-02-21T01:34:46.565Z,3.96
2019-02-21T01:35:46.704Z,3.96
2019-02-21T01:36:46.758Z,3.94
2019-02-21T01:37:46.845Z,3.96
2019-02-21T01:38:46.937Z,3.96
2019-02-21T01:39:47.027Z,3.98
2019-02-21T01:40:47.113Z,4.03
2019-02-21T01:41:47.200Z,3.98
2019-02-21T01:42:47.289Z,4.06
2019-02-21T01:43:47.372Z,4.07
2019-02-21T01:44:47.462Z,3.96
2019-02-21T01:45:47.550Z,4.03
2019-02-21T01:46:47.640Z,4.01
2019-02-21T01:47:47.728Z,3.98
2019-02-21T01:48:47.814Z,3.98
2019-02-21T01:49:47.902Z,4.00
2019-02-21T01:50:47.992Z,3.96
2019-02-21T01:51:48.077Z,4.06
2019-02-21T01:52:48.165Z,3.94
2019-02-21T01:53:48.252Z,3.97
2019-02-21T01:54:48.368Z,3.98
2019-02-21T01:55:48.424Z,3.92
2019-02-21T01:56:48.512Z,3.94
2019-02-21T01:57:48.614Z,3.90
2019-02-21T01:58:48.686Z,4.00
2019-02-21T01:59:48.773Z,3.92
2019-02-21T02:00:48.849Z,3.97
2019-02-21T02:01:48.943Z,3.94
2019-02-21T02:02:49.023Z,3.86
2019-02-21T02:03:49.106Z,3.98
2019-02-21T02:04:49.199Z,3.89
2019-02-21T02:05:49.288Z,3.88
2019-02-21T02:06:49.387Z,3.76
2019-02-21T02:07:49.444Z,3.83
2019-02-21T02:08:49.534Z,3.88
2019-02-21T02:09:49.617Z,3.75
2019-02-21T02:10:49.705Z,3.83
2019-02-21T02:11:49.797Z,3.83
2019-02-21T02:12:49.883Z,3.88
2019-02-21T02:13:49.968Z,3.90
2019-02-21T02:14:50.056Z,3.70
2019-02-21T02:15:50.140Z,3.75
2019-02-21T02:16:50.232Z,3.71
2019-02-21T02:17:50.322Z,3.68
2019-02-21T02:18:50.408Z,3.60
2019-02-21T02:19:50.504Z,3.70
2019-02-21T02:20:50.582Z,3.72
2019-02-21T02:21:50.671Z,3.70
2019-02-21T02:22:50.758Z,3.68
2019-02-21T02:23:50.842Z,3.75
2019-02-21T02:24:50.930Z,3.67
2019-02-21T02:25:51.018Z,3.61
2019-02-21T02:26:51.109Z,3.68
2019-02-21T02:27:51.195Z,3.72
2019-02-21T02:28:51.282Z,3.64
2019-02-21T02:29:51.371Z,3.62
2019-02-21T02:30:51.470Z,3.70
2019-02-21T02:31:51.558Z,3.71
2019-02-21T02:32:51.644Z,3.71
2019-02-21T02:33:51.745Z,3.60
2019-02-21T02:34:51.817Z,3.54
2019-02-21T02:35:51.906Z,3.68
2019-02-21T02:36:51.992Z,3.67
2019-02-21T02:37:52.073Z,3.75
2019-02-21T02:38:52.155Z,3.67
2019-02-21T02:39:52.243Z,3.67
2019-02-21T02:40:52.329Z,3.78
2019-02-21T02:41:52.417Z,3.71
2019-02-21T02:42:52.503Z,3.67
2019-02-21T02:43:52.596Z,3.79
2019-02-21T02:44:52.682Z,3.76
2019-02-21T02:45:52.769Z,3.78
2019-02-21T02:46:52.854Z,3.75
2019-02-21T02:47:52.939Z,3.75
2019-02-21T02:48:53.026Z,3.76
2019-02-21T02:49:53.113Z,3.85
2019-02-21T02:50:53.203Z,3.68
2019-02-21T02:51:53.288Z,3.68
2019-02-21T02:52:53.377Z,3.60
2019-02-21T02:53:53.466Z,3.71
2019-02-21T02:54:53.552Z,3.72
2019-02-21T02:55:53.639Z,3.70
2019-02-21T02:56:53.722Z,3.60
2019-02-21T02:57:53.810Z,3.64
2019-02-21T02:58:53.900Z,3.65
2019-02-21T02:59:53.987Z,3.60
2019-02-21T03:00:54.076Z,3.60
2019-02-21T03:01:54.153Z,3.65
2019-02-21T03:02:54.250Z,3.68
2019-02-21T03:03:54.327Z,3.65
2019-02-21T03:04:54.405Z,3.72
2019-02-21T03:05:54.497Z,3.67
2019-02-21T03:06:54.587Z,3.65
2019-02-21T03:07:54.667Z,3.60
2019-02-21T03:08:54.749Z,3.67
2019-02-21T03:09:54.838Z,3.67
2019-02-21T03:10:54.933Z,3.80
2019-02-21T03:11:55.018Z,3.83
2019-02-21T03:12:55.104Z,3.78
2019-02-21T03:13:55.189Z,3.82
2019-02-21T03:14:55.277Z,3.75
2019-02-21T03:15:55.367Z,3.68
2019-02-21T03:16:55.453Z,3.78
2019-02-21T03:17:55.538Z,3.72
2019-02-21T03:18:55.630Z,3.72
2019-02-21T03:19:55.702Z,3.72
2019-02-21T03:20:55.802Z,3.75
2019-02-21T03:21:55.916Z,3.75
2019-02-21T03:22:56.001Z,3.70
2019-02-21T03:23:56.100Z,3.89
2019-02-21T03:24:56.177Z,3.68
2019-02-21T03:25:56.272Z,3.70
2019-02-21T03:26:56.366Z,3.78
2019-02-21T03:27:56.446Z,3.62
2019-02-21T03:28:56.599Z,3.72
2019-02-21T03:29:56.618Z,3.68
2019-02-21T03:30:56.710Z,3.70
2019-02-21T03:31:56.808Z,3.71
2019-02-21T03:32:56.888Z,3.60
2019-02-21T03:33:56.972Z,3.68
2019-02-21T03:34:57.060Z,3.78
2019-02-21T03:35:57.146Z,3.75
2019-02-21T03:36:57.236Z,3.68
2019-02-21T03:37:57.326Z,3.75
2019-02-21T03:38:57.414Z,3.75
2019-02-21T03:39:57.500Z,3.70
2019-02-21T03:40:57.584Z,3.82
2019-02-21T03:41:57.676Z,3.71
2019-02-21T03:42:57.758Z,3.75
2019-02-21T03:43:57.849Z,3.76
2019-02-21T03:44:57.935Z,3.70
2019-02-21T03:45:58.019Z,3.72
2019-02-21T03:46:58.108Z,3.67
2019-02-21T03:47:58.200Z,3.65
2019-02-21T03:48:58.289Z,3.62
2019-02-21T03:49:58.384Z,3.62
2019-02-21T03:50:58.453Z,3.68
2019-02-21T03:51:58.638Z,3.67
2019-02-21T03:52:58.638Z,3.68
2019-02-21T03:53:58.727Z,3.71
2019-02-21T03:54:58.817Z,3.68
2019-02-21T03:55:58.904Z,3.75
2019-02-21T03:56:58.991Z,3.64
2019-02-21T03:57:59.078Z,3.71
2019-02-21T03:58:59.163Z,3.70
2019-02-21T03:59:59.252Z,3.68
2019-02-21T04:00:59.335Z,3.64
2019-02-21T04:02:05.407Z,3.65
2019-02-21T04:02:59.531Z,3.65
2019-02-21T04:03:59.619Z,3.64
2019-02-21T04:04:59.708Z,3.65
2019-02-21T04:05:59.800Z,3.72
2019-02-21T04:06:59.884Z,3.64
2019-02-21T04:07:59.970Z,3.64
2019-02-21T04:09:00.057Z,3.65
2019-02-21T04:10:00.462Z,3.60
2019-02-21T04:11:00.234Z,3.58
2019-02-21T04:12:00.323Z,3.65
2019-02-21T04:13:00.412Z,3.67
2019-02-21T04:14:00.510Z,3.60
2019-02-21T04:15:00.600Z,3.58
2019-02-21T04:16:00.676Z,3.53
2019-02-21T04:17:00.761Z,3.52
2019-02-21T04:18:00.859Z,3.46
2019-02-21T04:19:00.937Z,3.50
2019-02-21T04:20:01.160Z,3.60
2019-02-21T04:21:01.113Z,3.57
2019-02-21T04:22:01.196Z,3.50
2019-02-21T04:23:01.290Z,3.52
2019-02-21T04:24:01.379Z,3.65
2019-02-21T04:25:01.465Z,3.53
2019-02-21T04:26:01.552Z,3.58
2019-02-21T04:27:01.639Z,3.61
2019-02-21T04:28:01.730Z,3.70
2019-02-21T04:29:01.818Z,3.58
2019-02-21T04:30:01.909Z,3.58
2019-02-21T04:31:01.992Z,3.64
2019-02-21T04:32:02.079Z,3.58
2019-02-21T04:33:02.167Z,3.49
2019-02-21T04:34:02.257Z,3.57
2019-02-21T04:35:02.342Z,3.58
2019-02-21T04:36:02.432Z,3.57
2019-02-21T04:37:02.517Z,3.60
2019-02-21T04:38:02.603Z,3.67
2019-02-21T04:39:02.691Z,3.65
2019-02-21T04:40:02.787Z,3.60
2019-02-21T04:41:02.873Z,3.61
2019-02-21T04:42:02.967Z,3.62
2019-02-21T04:43:03.048Z,3.71
2019-02-21T04:44:04.002Z,3.71
2019-02-21T04:45:03.232Z,3.65
2019-02-21T04:46:03.311Z,3.70
2019-02-21T04:47:03.398Z,3.72
2019-02-21T04:48:03.485Z,3.64
2019-02-21T04:49:03.601Z,3.65
2019-02-21T04:50:03.658Z,3.67
2019-02-21T04:51:03.745Z,3.75
2019-02-21T04:52:03.834Z,3.53
2019-02-21T04:53:03.920Z,3.60
2019-02-21T04:54:04.082Z,3.67
2019-02-21T04:55:04.098Z,3.58
2019-02-21T04:56:04.186Z,3.57
2019-02-21T04:57:04.272Z,3.49
2019-02-21T04:58:04.359Z,3.44
2019-02-21T04:59:06.632Z,3.52
2019-02-21T05:00:04.528Z,3.40
2019-02-21T05:01:04.616Z,3.43
2019-02-21T05:02:04.708Z,3.43
2019-02-21T05:03:04.795Z,3.28
2019-02-21T05:04:05.021Z,3.27
2019-02-21T05:05:04.967Z,3.33
2019-02-21T05:06:05.054Z,3.25
2019-02-21T05:07:05.144Z,3.21
2019-02-21T05:08:05.233Z,3.39
2019-02-21T05:09:07.402Z,3.33
2019-02-21T05:10:05.408Z,3.34
2019-02-21T05:11:05.505Z,3.28
2019-02-21T05:12:05.591Z,3.16
2019-02-21T05:13:05.673Z,3.18
2019-02-21T05:14:05.761Z,3.30
2019-02-21T05:15:05.865Z,3.30
2019-02-21T05:16:05.937Z,3.24
2019-02-21T05:17:06.031Z,3.15
2019-02-21T05:18:06.112Z,3.18
2019-02-21T05:19:06.199Z,3.12
2019-02-21T05:20:06.293Z,3.09
2019-02-21T05:21:06.375Z,3.10
2019-02-21T05:22:06.463Z,3.00
2019-02-21T05:23:06.567Z,3.02
2019-02-21T05:24:06.682Z,2.88
2019-02-21T05:25:06.744Z,2.89
2019-02-21T05:26:06.831Z,2.95
2019-02-21T05:27:06.919Z,2.91
2019-02-21T05:28:07.007Z,2.91
2019-02-21T05:29:07.100Z,2.81
2019-02-21T05:30:07.185Z,2.77
2019-02-21T05:31:07.263Z,2.79
2019-02-21T05:32:07.367Z,2.84
2019-02-21T05:33:07.459Z,2.85
2019-02-21T05:34:07.548Z,2.91
2019-02-21T05:35:07.631Z,2.84
2019-02-21T05:36:07.715Z,2.85
2019-02-21T05:37:07.800Z,2.82
2019-02-21T05:38:07.960Z,2.79
2019-02-21T05:39:07.976Z,2.66
2019-02-21T05:40:08.064Z,2.77
2019-02-21T05:41:08.156Z,2.70
2019-02-21T05:42:08.229Z,2.55
2019-02-21T05:43:08.310Z,2.58
2019-02-21T05:44:08.399Z,2.61
2019-02-21T05:45:10.864Z,2.58
2019-02-21T05:46:08.571Z,2.56
2019-02-21T05:47:08.662Z,2.59
2019-02-21T05:48:08.745Z,2.58
2019-02-21T05:49:11.410Z,2.66
2019-02-21T05:50:08.924Z,2.59
2019-02-21T05:51:09.009Z,2.59
2019-02-21T05:52:09.096Z,2.56
2019-02-21T05:53:09.184Z,2.61
2019-02-21T05:54:09.270Z,2.53
2019-02-21T05:55:09.358Z,2.59
2019-02-21T05:56:09.446Z,2.53
2019-02-21T05:57:09.536Z,2.64
2019-02-21T05:58:12.364Z,2.53
2019-02-21T05:59:10.253Z,2.55
2019-02-21T06:00:09.832Z,2.53
2019-02-21T06:01:09.923Z,2.56
2019-02-21T06:02:10.006Z,2.58
2019-02-21T06:03:10.094Z,2.61
2019-02-21T06:04:10.183Z,2.56
2019-02-21T06:05:10.274Z,2.61
2019-02-21T06:06:10.355Z,2.63
2019-02-21T06:07:10.455Z,2.51
2019-02-21T06:08:10.532Z,2.51
2019-02-21T06:09:10.626Z,2.55
2019-02-21T06:10:10.710Z,2.53
2019-02-21T06:11:10.801Z,2.53
2019-02-21T06:12:10.883Z,2.55
2019-02-21T06:13:10.967Z,2.53
2019-02-21T06:14:11.052Z,2.48
2019-02-21T06:15:11.146Z,2.52
2019-02-21T06:16:11.238Z,2.48
2019-02-21T06:17:11.328Z,2.58
2019-02-21T06:18:11.409Z,2.46
2019-02-21T06:19:11.508Z,2.46
2019-02-21T06:20:11.573Z,2.61
2019-02-21T06:21:11.664Z,2.48
2019-02-21T06:22:11.750Z,2.49
2019-02-21T06:23:11.835Z,2.53
2019-02-21T06:24:12.001Z,2.49
2019-02-21T06:25:12.030Z,2.48
2019-02-21T06:26:12.099Z,2.45
2019-02-21T06:27:12.401Z,2.51
2019-02-21T06:28:12.278Z,2.58
2019-02-21T06:29:12.364Z,2.59
2019-02-21T06:30:12.462Z,2.58
2019-02-21T06:31:12.545Z,2.46
2019-02-21T06:32:14.506Z,2.56
2019-02-21T06:33:12.715Z,2.58
2019-02-21T06:34:12.804Z,2.56
2019-02-21T06:35:12.886Z,2.66
2019-02-21T06:36:12.979Z,2.52
2019-02-21T06:37:13.063Z,2.59
2019-02-21T06:38:13.149Z,2.71
2019-02-21T06:39:13.250Z,2.61
2019-02-21T06:40:13.323Z,2.74
2019-02-21T06:41:13.411Z,2.77
2019-02-21T06:42:13.500Z,2.79
2019-02-21T06:43:13.601Z,2.70
2019-02-21T06:44:13.693Z,2.82
2019-02-21T06:45:13.782Z,2.76
2019-02-21T06:46:14.017Z,2.82
2019-02-21T06:47:13.982Z,2.88
2019-02-21T06:48:14.062Z,3.02
2019-02-21T06:49:14.152Z,2.97
2019-02-21T06:50:14.580Z,3.10
2019-02-21T06:51:14.326Z,3.05
2019-02-21T06:52:15.728Z,3.05
2019-02-21T06:53:14.492Z,3.20
2019-02-21T06:54:14.581Z,3.25
2019-02-21T06:55:14.668Z,3.24
2019-02-21T06:56:14.750Z,3.27
2019-02-21T06:57:14.828Z,3.25
2019-02-21T06:58:14.935Z,3.25
2019-02-21T06:59:15.029Z,3.25
2019-02-21T07:00:15.095Z,3.49
2019-02-21T07:01:25.448Z,3.46
2019-02-21T07:02:15.270Z,3.36
2019-02-21T07:03:16.187Z,3.40
2019-02-21T07:04:15.441Z,3.52
2019-02-21T07:05:15.537Z,3.53
2019-02-21T07:06:15.619Z,3.58
2019-02-21T07:07:15.710Z,3.65
2019-02-21T07:08:15.796Z,3.57
2019-02-21T07:09:15.882Z,3.50
2019-02-21T07:10:15.980Z,3.62
2019-02-21T07:11:16.062Z,3.61
2019-02-21T07:12:16.153Z,3.67
2019-02-21T07:13:26.100Z,3.62
2019-02-21T07:14:16.347Z,3.64
2019-02-21T07:15:16.435Z,3.62
2019-02-21T07:16:16.578Z,3.70
2019-02-21T07:17:16.696Z,3.75
2019-02-21T07:18:16.701Z,3.72
2019-02-21T07:19:16.849Z,3.70
2019-02-21T07:20:16.887Z,3.83
2019-02-21T07:21:16.974Z,3.75
2019-02-21T07:22:18.046Z,3.78
2019-02-21T07:23:17.151Z,3.94
2019-02-21T07:24:18.169Z,3.90
2019-02-21T07:25:17.327Z,3.97
2019-02-21T07:26:17.422Z,3.89
2019-02-21T07:27:17.502Z,3.97
2019-02-21T07:28:17.584Z,3.90
2019-02-21T07:29:17.669Z,3.98
2019-02-21T07:30:21.069Z,3.97
2019-02-21T07:31:28.203Z,3.97
2019-02-21T07:32:17.938Z,4.06
2019-02-21T07:33:27.895Z,3.96
2019-02-21T07:34:18.115Z,4.08
2019-02-21T07:35:18.202Z,4.08
2019-02-21T07:36:18.292Z,4.15
2019-02-21T07:37:19.155Z,4.19
2019-02-21T07:38:18.469Z,4.15
2019-02-21T07:39:20.812Z,4.15
2019-02-21T07:40:20.384Z,4.29
2019-02-21T07:41:18.910Z,4.29
2019-02-21T07:42:18.827Z,4.21
2019-02-21T07:43:20.629Z,4.24
2019-02-21T07:44:19.005Z,4.25
2019-02-21T07:45:19.082Z,4.32
2019-02-21T07:46:19.177Z,4.34
2019-02-21T07:47:19.264Z,4.37
2019-02-21T07:48:19.352Z,4.34
2019-02-21T07:49:19.442Z,4.34
2019-02-21T07:50:19.532Z,4.39
2019-02-21T07:51:19.626Z,4.34
2019-02-21T07:52:19.706Z,4.37
2019-02-21T07:53:19.794Z,4.37
2019-02-21T07:54:19.881Z,4.34
2019-02-21T07:55:19.979Z,4.37
2019-02-21T07:56:20.058Z,4.36
2019-02-21T07:57:20.149Z,4.33
2019-02-21T07:58:20.233Z,4.37
2019-02-21T07:59:20.322Z,4.37
2019-02-21T08:00:20.410Z,4.39
2019-02-21T08:01:20.502Z,4.46
2019-02-21T08:02:21.101Z,4.39
2019-02-21T08:03:29.786Z,4.51
2019-02-21T08:04:20.760Z,4.58
2019-02-21T08:05:23.503Z,4.57
2019-02-21T08:06:20.938Z,4.62
2019-02-21T08:07:21.037Z,4.59
2019-02-21T08:08:21.124Z,4.58
2019-02-21T08:09:21.203Z,4.58
2019-02-21T08:10:32.745Z,4.64
2019-02-21T08:11:21.381Z,4.58
2019-02-21T08:12:23.294Z,4.59
2019-02-21T08:13:21.558Z,4.59
2019-02-21T08:14:21.647Z,4.58
2019-02-21T08:15:21.735Z,4.62
2019-02-21T08:16:21.818Z,4.65
2019-02-21T08:17:21.911Z,4.73
2019-02-21T08:18:21.997Z,4.80
2019-02-21T08:19:22.085Z,4.80
2019-02-21T08:20:33.260Z,4.95
2019-02-21T08:21:22.260Z,4.92
2019-02-21T08:22:22.350Z,4.96
2019-02-21T08:23:22.439Z,5.01
2019-02-21T08:24:22.542Z,5.10
2019-02-21T08:25:22.615Z,5.14
2019-02-21T08:26:22.731Z,5.16
2019-02-21T08:27:22.793Z,5.20
2019-02-21T08:28:22.889Z,5.28
2019-02-21T08:29:22.982Z,5.22
2019-02-21T08:30:23.069Z,5.20
2019-02-21T08:31:23.221Z,5.27
2019-02-21T08:32:23.247Z,5.34
2019-02-21T08:33:23.338Z,5.43
2019-02-21T08:34:23.425Z,5.55
2019-02-21T08:35:23.516Z,5.52
2019-02-21T08:36:23.600Z,5.49
2019-02-21T08:37:23.689Z,5.59
2019-02-21T08:38:23.781Z,5.63
2019-02-21T08:39:23.870Z,5.68
2019-02-21T08:40:25.089Z,5.64
2019-02-21T08:41:25.758Z,5.75
2019-02-21T08:42:24.130Z,5.77
2019-02-21T08:43:24.218Z,5.73
2019-02-21T08:44:24.308Z,5.81
2019-02-21T08:45:24.397Z,5.73
2019-02-21T08:46:24.488Z,5.82
2019-02-21T08:47:24.569Z,5.83
2019-02-21T08:48:24.666Z,5.86
2019-02-21T08:49:24.754Z,5.95
2019-02-21T08:50:24.845Z,5.98
2019-02-21T08:51:24.932Z,5.91
2019-02-21T08:52:25.028Z,5.95
2019-02-21T08:53:27.884Z,6.03
2019-02-21T08:54:25.234Z,6.00
2019-02-21T08:55:25.300Z,5.92
2019-02-21T08:56:25.384Z,6.03
2019-02-21T08:57:25.481Z,5.96
2019-02-21T08:58:25.568Z,6.01
2019-02-21T08:59:25.656Z,6.03
2019-02-21T09:00:25.762Z,6.00
2019-02-21T09:01:25.851Z,6.09
2019-02-21T09:02:25.938Z,6.14
2019-02-21T09:03:26.031Z,6.11
2019-02-21T09:04:27.773Z,6.10
2019-02-21T09:05:26.207Z,6.13
2019-02-21T09:06:26.289Z,6.21
2019-02-21T09:07:26.379Z,6.22
2019-02-21T09:08:33.660Z,6.26
2019-02-21T09:09:26.556Z,6.11
2019-02-21T09:10:27.735Z,6.21
2019-02-21T09:11:26.735Z,6.21
2019-02-21T09:12:26.816Z,6.25
2019-02-21T09:13:26.941Z,6.18
2019-02-21T09:14:26.996Z,6.32
2019-02-21T09:15:27.084Z,6.44
2019-02-21T09:16:27.174Z,6.36
2019-02-21T09:17:27.267Z,6.41
2019-02-21T09:18:27.382Z,6.48
2019-02-21T09:19:27.469Z,6.51
2019-02-21T09:20:27.557Z,6.66
2019-02-21T09:21:27.645Z,6.61
2019-02-21T09:22:27.737Z,6.65
2019-02-21T09:23:27.824Z,6.68
2019-02-21T09:24:38.214Z,6.72
2019-02-21T09:25:27.998Z,6.76
2019-02-21T09:26:28.089Z,6.76
2019-02-21T09:27:28.178Z,6.77
2019-02-21T09:28:28.269Z,6.81
2019-02-21T09:29:28.368Z,6.81
2019-02-21T09:30:28.450Z,6.91
2019-02-21T09:31:28.536Z,6.90
2019-02-21T09:32:28.625Z,6.97
2019-02-21T09:33:28.715Z,7.05
2019-02-21T09:34:28.803Z,7.12
2019-02-21T09:35:28.892Z,7.17
2019-02-21T09:36:28.985Z,7.26
2019-02-21T09:37:29.076Z,7.26
2019-02-21T09:38:29.166Z,7.22
2019-02-21T09:39:29.255Z,7.37
2019-02-21T09:40:29.343Z,7.47
2019-02-21T09:41:29.435Z,7.53
2019-02-21T09:42:29.528Z,7.56
2019-02-21T09:43:29.624Z,7.60
2019-02-21T09:44:29.713Z,7.69
2019-02-21T09:45:29.817Z,7.69
2019-02-21T09:46:29.892Z,7.81
2019-02-21T09:47:31.063Z,7.90
2019-02-21T09:48:30.071Z,7.93
2019-02-21T09:49:30.164Z,7.94
2019-02-21T09:50:30.252Z,7.99
2019-02-21T09:51:30.345Z,8.03
2019-02-21T09:52:30.427Z,8.12
2019-02-21T09:53:30.515Z,8.14
2019-02-21T09:54:30.612Z,8.14
2019-02-21T09:55:30.691Z,8.17
2019-02-21T09:56:30.976Z,8.26
2019-02-21T09:57:30.850Z,8.33
2019-02-21T09:58:30.943Z,8.33
2019-02-21T09:59:39.703Z,8.32
2019-02-21T10:00:31.170Z,8.36
2019-02-21T10:01:31.258Z,8.42
2019-02-21T10:02:31.365Z,8.51
2019-02-21T10:03:31.453Z,8.60
2019-02-21T10:04:32.383Z,8.63
2019-02-21T10:05:31.717Z,8.71
2019-02-21T10:06:31.681Z,8.71
2019-02-21T10:07:31.769Z,8.81
2019-02-21T10:08:31.882Z,8.87
2019-02-21T10:09:31.981Z,9.04
2019-02-21T10:10:32.064Z,9.20
2019-02-21T10:11:32.154Z,9.24
2019-02-21T10:12:32.254Z,9.38
2019-02-21T10:13:32.347Z,9.18
2019-02-21T10:14:32.440Z,9.25
2019-02-21T10:15:32.531Z,9.35
2019-02-21T10:16:32.623Z,9.38
2019-02-21T10:17:32.715Z,9.35
2019-02-21T10:18:32.804Z,9.42
2019-02-21T10:19:35.395Z,9.49
2019-02-21T10:20:32.999Z,9.46
2019-02-21T10:21:33.099Z,9.58
2019-02-21T10:22:33.190Z,9.56
2019-02-21T10:23:33.280Z,9.52
2019-02-21T10:24:33.371Z,9.52
2019-02-21T10:25:33.459Z,9.50
2019-02-21T10:26:33.554Z,9.63
2019-02-21T10:27:33.645Z,9.57
2019-02-21T10:28:33.776Z,9.63
2019-02-21T10:29:33.821Z,9.66
2019-02-21T10:30:36.280Z,9.66
2019-02-21T10:31:34.002Z,9.66
2019-02-21T10:32:34.107Z,9.66
2019-02-21T10:33:34.184Z,9.75
2019-02-21T10:34:42.738Z,9.73
2019-02-21T10:35:34.366Z,9.68
2019-02-21T10:36:34.457Z,9.68
2019-02-21T10:37:34.564Z,9.76
2019-02-21T10:38:34.648Z,9.79
2019-02-21T10:39:34.741Z,9.81
2019-02-21T10:40:34.831Z,9.83
2019-02-21T10:41:34.923Z,9.81
2019-02-21T10:42:35.011Z,9.91
2019-02-21T10:43:35.101Z,9.97
2019-02-21T10:44:35.203Z,9.83
2019-02-21T10:45:35.293Z,9.86
2019-02-21T10:46:35.384Z,9.83
2019-02-21T10:47:35.466Z,9.79
2019-02-21T10:48:35.555Z,9.81
2019-02-21T10:49:35.646Z,9.89
2019-02-21T10:50:35.736Z,10.03
2019-02-21T10:51:35.826Z,10.12
2019-02-21T10:52:35.939Z,10.19
2019-02-21T10:53:36.040Z,10.18
2019-02-21T10:54:36.142Z,10.21
2019-02-21T10:55:36.297Z,10.36
2019-02-21T10:56:36.314Z,10.39
2019-02-21T10:57:36.402Z,10.36
2019-02-21T10:58:36.491Z,10.39
2019-02-21T10:59:46.206Z,10.37
2019-02-21T11:00:36.677Z,10.33
2019-02-21T11:01:36.766Z,10.36
2019-02-21T11:02:36.855Z,10.37
2019-02-21T11:03:36.947Z,10.43
2019-02-21T11:04:37.046Z,10.52
2019-02-21T11:05:37.133Z,10.55
2019-02-21T11:06:37.225Z,10.56
2019-02-21T11:07:37.314Z,10.68
2019-02-21T11:08:37.404Z,10.65
2019-02-21T11:09:37.492Z,10.83
2019-02-21T11:10:37.586Z,10.81
2019-02-21T11:11:37.678Z,10.92
2019-02-21T11:12:37.784Z,10.96
2019-02-21T11:13:37.878Z,11.10
2019-02-21T11:14:47.161Z,11.10
2019-02-21T11:15:38.069Z,11.24
2019-02-21T11:16:38.173Z,11.28
2019-02-21T11:17:38.258Z,11.29
2019-02-21T11:18:38.353Z,11.38
2019-02-21T11:19:38.445Z,11.46
2019-02-21T11:20:38.537Z,11.61
2019-02-21T11:21:38.630Z,11.85
2019-02-21T11:22:38.711Z,11.86
2019-02-21T11:23:38.809Z,11.99
2019-02-21T11:24:38.909Z,12.20
2019-02-21T11:25:38.996Z,12.26
2019-02-21T11:26:39.090Z,12.31
2019-02-21T11:27:39.182Z,12.41
2019-02-21T11:28:39.267Z,12.39
2019-02-21T11:29:39.361Z,12.49
2019-02-21T11:30:39.454Z,12.63
2019-02-21T11:31:39.546Z,12.62
2019-02-21T11:32:39.641Z,12.49
2019-02-21T11:33:39.750Z,12.64
2019-02-21T11:34:39.821Z,12.75
2019-02-21T11:35:39.909Z,12.81
2019-02-21T11:36:40.009Z,12.93
2019-02-21T11:37:43.194Z,12.92
2019-02-21T11:38:40.193Z,12.96
2019-02-21T11:39:40.285Z,12.92
2019-02-21T11:40:40.376Z,12.97
2019-02-21T11:41:40.471Z,12.92
2019-02-21T11:42:40.563Z,12.99
2019-02-21T11:43:40.662Z,12.96
2019-02-21T11:44:40.769Z,12.82
2019-02-21T11:45:40.846Z,12.71
2019-02-21T11:46:40.940Z,12.77
2019-02-21T11:47:41.038Z,12.84
2019-02-21T11:48:41.120Z,12.77
2019-02-21T11:49:41.214Z,12.87
2019-02-21T11:50:41.304Z,12.81
2019-02-21T11:51:41.400Z,12.87
2019-02-21T11:52:41.497Z,12.97
2019-02-21T11:53:41.584Z,12.99
2019-02-21T11:54:41.682Z,13.04
2019-02-21T11:55:41.774Z,13.12
2019-02-21T11:56:41.870Z,13.27
2019-02-21T11:57:41.979Z,13.32
2019-02-21T11:58:42.075Z,13.46
2019-02-21T11:59:42.167Z,13.37
2019-02-21T12:00:42.259Z,13.41
2019-02-21T12:01:42.353Z,13.07
2019-02-21T12:02:42.443Z,13.04
2019-02-21T12:03:42.540Z,13.11
2019-02-21T12:04:42.636Z,13.12
2019-02-21T12:05:42.727Z,13.02
2019-02-21T12:06:42.822Z,13.09
2019-02-21T12:07:42.922Z,12.96
2019-02-21T12:08:43.029Z,12.95
2019-02-21T12:09:43.116Z,12.89
2019-02-21T12:10:43.208Z,12.84
2019-02-21T12:11:43.303Z,12.95
2019-02-21T12:12:43.393Z,12.88
2019-02-21T12:13:43.489Z,12.84
2019-02-21T12:14:43.587Z,12.87
2019-02-21T12:15:43.678Z,12.81
2019-02-21T12:16:43.766Z,12.70
2019-02-21T12:17:43.861Z,12.67
2019-02-21T12:18:43.956Z,12.54
2019-02-21T12:19:44.050Z,12.29
2019-02-21T12:20:44.139Z,12.39
2019-02-21T12:21:44.232Z,12.48
2019-02-21T12:22:44.326Z,12.62
2019-02-21T12:23:44.426Z,12.57
2019-02-21T12:24:44.517Z,12.49
2019-02-21T12:25:44.609Z,12.60
2019-02-21T12:26:44.703Z,12.56
2019-02-21T12:27:44.792Z,12.49
2019-02-21T12:28:44.905Z,12.34
2019-02-21T12:29:44.986Z,12.44
2019-02-21T12:30:45.078Z,12.46
2019-02-21T12:31:45.171Z,12.44
2019-02-21T12:32:45.274Z,12.46
2019-02-21T12:33:45.345Z,12.60
2019-02-21T12:34:45.453Z,12.64
2019-02-21T12:35:45.541Z,12.67
2019-02-21T12:36:45.647Z,12.75
2019-02-21T12:37:45.750Z,12.81
2019-02-21T12:38:45.839Z,12.79
2019-02-21T12:39:45.932Z,12.88
2019-02-21T12:40:46.021Z,12.93
2019-02-21T12:41:46.117Z,12.93
2019-02-21T12:42:46.209Z,13.12
2019-02-21T12:43:46.299Z,13.12
2019-02-21T12:44:47.920Z,13.24
2019-02-21T12:45:46.482Z,13.32
2019-02-21T12:46:46.575Z,13.46
2019-02-21T12:47:53.109Z,13.44
2019-02-21T12:48:46.757Z,13.43
2019-02-21T12:49:46.855Z,13.44
2019-02-21T12:50:46.949Z,13.44
2019-02-21T12:51:47.042Z,13.63
2019-02-21T12:52:47.128Z,13.52
2019-02-21T12:53:47.272Z,13.44
2019-02-21T12:54:47.317Z,13.40
2019-02-21T12:55:47.410Z,13.40
2019-02-21T12:56:47.501Z,13.27
2019-02-21T12:57:47.594Z,13.27
2019-02-21T12:58:47.699Z,13.30
2019-02-21T12:59:47.779Z,13.30
2019-02-21T13:00:47.876Z,13.30
2019-02-21T13:01:47.965Z,13.29
2019-02-21T13:02:48.063Z,13.17
2019-02-21T13:03:48.155Z,13.30
2019-02-21T13:04:48.248Z,13.17
2019-02-21T13:05:48.339Z,13.11
2019-02-21T13:06:48.434Z,13.03
2019-02-21T13:07:48.544Z,13.09
2019-02-21T13:08:48.626Z,12.97
2019-02-21T13:09:48.732Z,12.95
2019-02-21T13:10:48.822Z,12.99
2019-02-21T13:11:48.909Z,12.99
2019-02-21T13:12:49.007Z,12.99
2019-02-21T13:13:49.106Z,12.96
2019-02-21T13:14:49.195Z,13.03